This is the latest recevied weather packets stored in our database for station/object AD7ZD. If no packets are shown the sender has not sent any weather packets the latest 10 day(s).
| Time | Temp. | Humidity | Pressure | Rain* | Wind** | Luminosity | Snow |
|---|---|---|---|---|---|---|---|
| 1778159518 | 10° C | 64% | 1017.1 hPa | 0 mm | - | 11 W/m² | - |
| 1778159214 | 8.89° C | 69% | 1017.2 hPa | 0 mm | - | 9 W/m² | - |
| 1778158912 | 8.89° C | 70% | 1017.1 hPa | 0 mm | - | 5 W/m² | - |
| 1778158611 | 8.89° C | 68% | 1017.4 hPa | 0 mm | - | 1 W/m² | - |
| 1778158308 | 9.44° C | 65% | 1016.9 hPa | 0 mm | - | 0 W/m² | - |
| 1778158004 | 10° C | 62% | 1017 hPa | 0 mm | - | 0 W/m² | - |
| 1778157702 | 8.33° C | 72% | 1017 hPa | 0 mm | - | 0 W/m² | - |
| 1778157400 | 8.89° C | 70% | 1017.1 hPa | 0 mm | - | 0 W/m² | - |
| 1778157097 | 8.33° C | 71% | 1016.9 hPa | 0 mm | - | 0 W/m² | - |
| 1778156792 | 9.44° C | 67% | 1017.2 hPa | 0 mm | - | 0 W/m² | - |
| 1778156488 | 8.89° C | 71% | 1017.1 hPa | 0 mm | - | 0 W/m² | - |
| 1778156184 | 8.33° C | 73% | 1017 hPa | 0 mm | - | 0 W/m² | - |
| 1778155880 | 7.78° C | 74% | 1017 hPa | 0 mm | - | 0 W/m² | - |
| 1778155577 | 8.89° C | 65% | 1017.4 hPa | 0 mm | - | 0 W/m² | - |
| 1778155273 | 10° C | 58% | 1017.1 hPa | 0 mm | - | 0 W/m² | - |
| 1778154970 | 10° C | 59% | 1017.1 hPa | 0 mm | - | 0 W/m² | - |
| 1778154665 | 9.44° C | 61% | 1017.1 hPa | 0 mm | - | 0 W/m² | - |
| 1778154361 | 8.89° C | 67% | 1017.5 hPa | 0 mm | - | 0 W/m² | - |
| 1778154059 | 10° C | 57% | 1017.4 hPa | 0 mm | - | 0 W/m² | - |
| 1778153756 | 10° C | 58% | 1016.9 hPa | 0 mm | - | 0 W/m² | - |
| 1778153453 | 10° C | 58% | 1017.1 hPa | 0 mm | - | 0 W/m² | - |
| 1778153151 | 10.56° C | 55% | 1017.2 hPa | 0 mm | - | 0 W/m² | - |
| 1778152847 | 11.11° C | 53% | 1017 hPa | 0 mm | - | 0 W/m² | - |
| 1778152544 | 11.67° C | 51% | 1017.1 hPa | 0 mm | - | 0 W/m² | - |
| 1778152241 | 10.56° C | 58% | 1017.2 hPa | 0 mm | - | 0 W/m² | - |
* Rain latest hour (hover to see other rain measurements)
** Current wind speed in m/s (hover to see current wind gust speed)